Estación de Campanacura
Ultimos registro cada 15 minutos 89
| N° | Estación | Fecha / Hora | Temperatura | Humedad | Lluvia | Velocidad | Dirección | Radiación | Presion |
| 89 | Campanacura | 09-05-2026 22:00 | 10,7 | 63,5 | 0 | 0 | 185 | 0,6 | 1003,9 |
| 88 | Campanacura | 09-05-2026 21:45 | 10,8 | 63,3 | 0 | 0,5 | 188 | 0,6 | 1004,1 |
| 87 | Campanacura | 09-05-2026 21:30 | 11,1 | 63,1 | 0 | 0,5 | 191 | 0,6 | 1003,8 |
| 86 | Campanacura | 09-05-2026 21:15 | 10,8 | 62,8 | 0 | 0 | 187 | 0,6 | 1003,8 |
| 85 | Campanacura | 09-05-2026 21:00 | 10,8 | 62,4 | 0 | 0,5 | 188 | 0,6 | 1003,7 |
| 84 | Campanacura | 09-05-2026 20:45 | 11,6 | 63,2 | 0 | 1 | 190 | 0,6 | 1003,4 |
| 83 | Campanacura | 09-05-2026 20:30 | 12 | 63,1 | 0 | 1 | 188 | 0,6 | 1003,4 |
| 82 | Campanacura | 09-05-2026 20:15 | 11,4 | 63,4 | 0 | 1 | 188 | 0,6 | 1003,5 |
| 81 | Campanacura | 09-05-2026 20:00 | 12,2 | 62,7 | 0 | 1 | 188 | 0,6 | 1003,2 |
| 80 | Campanacura | 09-05-2026 19:45 | 12,3 | 62,1 | 0 | 0,5 | 187 | 0,6 | 1003,3 |
| 79 | Campanacura | 09-05-2026 19:30 | 12,8 | 61,3 | 0 | 1 | 191 | 0,6 | 1003,1 |
| 78 | Campanacura | 09-05-2026 19:15 | 12,9 | 60,9 | 0 | 1 | 191 | 0,6 | 1003,2 |
| 77 | Campanacura | 09-05-2026 19:00 | 13 | 60 | 0 | 1,5 | 188 | 0,6 | 1003,1 |
| 76 | Campanacura | 09-05-2026 18:45 | 12,9 | 60 | 0 | 1,5 | 190 | 0,6 | 1003 |
| 75 | Campanacura | 09-05-2026 18:30 | 13,2 | 58,9 | 0 | 1 | 187 | 0,6 | 1002,9 |
| 74 | Campanacura | 09-05-2026 18:15 | 13,7 | 57,4 | 0 | 1,5 | 191 | 0,6 | 1002,7 |
| 73 | Campanacura | 09-05-2026 18:00 | 13,8 | 57,4 | 0 | 1 | 190 | 3,1 | 1002,6 |
| 72 | Campanacura | 09-05-2026 17:45 | 14,2 | 56,9 | 0 | 1 | 185 | 26,9 | 1002,9 |
| 71 | Campanacura | 09-05-2026 17:30 | 15 | 54,7 | 0 | 2 | 187 | 73,1 | 1002,9 |
| 70 | Campanacura | 09-05-2026 17:15 | 16,1 | 51,7 | 0 | 2 | 190 | 120,6 | 1002,9 |
| 69 | Campanacura | 09-05-2026 17:00 | 16,7 | 49,9 | 0 | 2,5 | 187 | 163,1 | 1001,7 |
| 68 | Campanacura | 09-05-2026 16:45 | 16,9 | 47,7 | 0 | 3 | 188 | 206,9 | 1001,8 |
| 67 | Campanacura | 09-05-2026 16:30 | 17 | 47,4 | 0 | 3 | 190 | 249,4 | 1001,4 |
| 66 | Campanacura | 09-05-2026 16:15 | 17,2 | 48,5 | 0 | 3 | 183 | 289,4 | 1001,4 |
| 65 | Campanacura | 09-05-2026 16:00 | 17,6 | 48,1 | 0 | 3 | 181 | 331,9 | 1001,5 |
| 64 | Campanacura | 09-05-2026 15:45 | 17,7 | 46,5 | 0 | 3 | 173 | 366,9 | 1001,4 |
| 63 | Campanacura | 09-05-2026 15:30 | 17,8 | 46,9 | 0 | 3 | 174 | 401,9 | 1001,5 |
| 62 | Campanacura | 09-05-2026 15:15 | 17,7 | 46,8 | 0 | 3,5 | 175 | 434,4 | 1001,6 |
| 61 | Campanacura | 09-05-2026 15:00 | 17,9 | 47,1 | 0 | 3,5 | 183 | 464,4 | 1001,3 |
| 60 | Campanacura | 09-05-2026 14:45 | 17,8 | 45,6 | 0 | 3,5 | 177 | 490,6 | 1001,4 |
| 59 | Campanacura | 09-05-2026 14:30 | 17,6 | 47,7 | 0 | 3,5 | 178 | 514,4 | 1001,5 |
| 58 | Campanacura | 09-05-2026 14:15 | 17,2 | 47,6 | 0 | 3,5 | 188 | 534,4 | 1001,8 |
| 57 | Campanacura | 09-05-2026 14:00 | 17,2 | 46,9 | 0 | 3,5 | 183 | 553,1 | 1001,9 |
| 56 | Campanacura | 09-05-2026 13:45 | 17,4 | 49,9 | 0 | 3 | 185 | 568,1 | 1002,2 |
| 55 | Campanacura | 09-05-2026 13:30 | 17 | 49,4 | 0 | 3,5 | 180 | 578,1 | 1002,1 |
| 54 | Campanacura | 09-05-2026 13:15 | 16,6 | 49,4 | 0 | 3 | 180 | 583,1 | 1003,2 |
| 53 | Campanacura | 09-05-2026 13:00 | 16,6 | 51 | 0,2 | 2,5 | 178 | 586,9 | 1003,2 |
| 52 | Campanacura | 09-05-2026 12:45 | 16,3 | 52,2 | 0 | 3 | 188 | 588,1 | 1003,5 |
| 51 | Campanacura | 09-05-2026 12:30 | 15,6 | 52,2 | 0 | 3 | 187 | 584,4 | 1004,2 |
| 50 | Campanacura | 09-05-2026 12:15 | 14,8 | 53,2 | 0 | 3 | 187 | 576,9 | 1004,5 |
| 49 | Campanacura | 09-05-2026 12:00 | 14,7 | 55,7 | 0 | 2,5 | 183 | 565,6 | 1004,8 |
| 48 | Campanacura | 09-05-2026 11:45 | 14,1 | 57 | 0 | 3 | 184 | 551,9 | 1004,9 |
| 47 | Campanacura | 09-05-2026 11:30 | 13,7 | 59,1 | 0 | 2,5 | 173 | 535,6 | 1005 |
| 46 | Campanacura | 09-05-2026 11:15 | 13,5 | 60,5 | 0 | 2,5 | 184 | 511,9 | 1005,1 |
| 45 | Campanacura | 09-05-2026 11:00 | 13,3 | 59,6 | 0 | 2 | 192 | 489,4 | 1005,2 |
| 44 | Campanacura | 09-05-2026 10:45 | 12,4 | 62,6 | 0 | 2,5 | 194 | 460,6 | 1005,3 |
| 43 | Campanacura | 09-05-2026 10:30 | 11,7 | 64,1 | 0 | 2,5 | 195 | 429,4 | 1005,4 |
| 42 | Campanacura | 09-05-2026 10:15 | 11,2 | 65 | 0 | 2,5 | 192 | 398,1 | 1005,5 |
| 41 | Campanacura | 09-05-2026 10:00 | 10,6 | 63,7 | 0 | 2 | 188 | 361,9 | 1005,5 |
| 40 | Campanacura | 09-05-2026 09:45 | 10,1 | 63,3 | 0 | 2 | 191 | 325,6 | 1005,4 |
| 39 | Campanacura | 09-05-2026 09:30 | 9,6 | 60,7 | 0 | 1,5 | 190 | 285,6 | 1005,4 |
| 38 | Campanacura | 09-05-2026 09:15 | 9 | 59,3 | 0 | 1 | 191 | 246,9 | 1005,6 |
| 37 | Campanacura | 09-05-2026 09:00 | 8,1 | 58 | 0 | 1,5 | 190 | 204,4 | 1005,7 |
| 36 | Campanacura | 09-05-2026 08:45 | 7,2 | 50,5 | 0 | 0,5 | 175 | 164,4 | 1005,8 |
| 35 | Campanacura | 09-05-2026 08:30 | 6,5 | 42 | 0 | 0 | 183 | 124,4 | 1005,7 |
| 34 | Campanacura | 09-05-2026 08:15 | 5,5 | 39,3 | 0 | 0 | 175 | 76,9 | 1005,7 |
| 33 | Campanacura | 09-05-2026 08:00 | 4,4 | 37,3 | 0 | 0 | 175 | 31,9 | 1005,6 |
| 32 | Campanacura | 09-05-2026 07:45 | 4,5 | 35,7 | 0 | 0 | 185 | 8,1 | 1005,8 |
| 31 | Campanacura | 09-05-2026 07:30 | 3,9 | 31,7 | 0 | 0 | 190 | 1,9 | 1005,7 |
| 30 | Campanacura | 09-05-2026 07:15 | 3,7 | 29,9 | 0 | 0 | 180 | 0,6 | 1005,8 |
| 29 | Campanacura | 09-05-2026 07:00 | 3,6 | 30,6 | 0 | 0 | 178 | 0,6 | 1005,9 |
| 28 | Campanacura | 09-05-2026 06:45 | 3,9 | 31,7 | 0 | 0 | 181 | 0,6 | 1005,9 |
| 27 | Campanacura | 09-05-2026 06:30 | 4,5 | 32,3 | 0 | 0,5 | 188 | 0,6 | 1005,9 |
| 26 | Campanacura | 09-05-2026 06:15 | 4,5 | 32,8 | 0 | 0 | 185 | 0,6 | 1006,1 |
| 25 | Campanacura | 09-05-2026 06:00 | 4,7 | 35,4 | 0 | 0,5 | 185 | 0,6 | 1006,3 |
| 24 | Campanacura | 09-05-2026 05:45 | 5,1 | 38,8 | 0 | 0,5 | 191 | 0,6 | 1006 |
| 23 | Campanacura | 09-05-2026 05:30 | 5,7 | 46,3 | 0 | 0 | 190 | 0,6 | 1006,2 |
| 22 | Campanacura | 09-05-2026 05:15 | 6,5 | 48,7 | 0 | 1,5 | 191 | 0,6 | 1006,1 |
| 21 | Campanacura | 09-05-2026 05:00 | 7 | 51,7 | 0 | 1 | 191 | 0,6 | 1006,2 |
| 20 | Campanacura | 09-05-2026 04:45 | 6,9 | 48,9 | 0 | 1 | 191 | 0,6 | 1006,3 |
| 19 | Campanacura | 09-05-2026 04:30 | 7,1 | 46,1 | 0 | 1,5 | 191 | 0,6 | 1006,3 |
| 18 | Campanacura | 09-05-2026 04:15 | 6,8 | 40,7 | 0 | 1,5 | 191 | 0,6 | 1006,3 |
| 17 | Campanacura | 09-05-2026 04:00 | 6,9 | 35,4 | 0 | 1,5 | 191 | 0,6 | 1006,2 |
| 16 | Campanacura | 09-05-2026 03:45 | 6,4 | 25,2 | 0 | 1,5 | 192 | 0,6 | 1006,3 |
| 15 | Campanacura | 09-05-2026 03:30 | 6,1 | 25,3 | 0 | 0,5 | 185 | 0,6 | 1006,6 |
| 14 | Campanacura | 09-05-2026 03:15 | 6,4 | 24,8 | 0 | 0,5 | 178 | 0,6 | 1006,9 |
| 13 | Campanacura | 09-05-2026 03:00 | 7 | 23,4 | 0 | 1,5 | 192 | 0,6 | 1006,9 |
| 12 | Campanacura | 09-05-2026 02:45 | 6,9 | 22,2 | 0 | 1 | 191 | 0,6 | 1006,9 |
| 11 | Campanacura | 09-05-2026 02:30 | 6,8 | 22,1 | 0 | 1 | 190 | 0,6 | 1007 |
| 10 | Campanacura | 09-05-2026 02:15 | 7,2 | 21,2 | 0 | 1,5 | 191 | 0,6 | 1007 |
| 9 | Campanacura | 09-05-2026 02:00 | 7,1 | 21 | 0 | 0,5 | 173 | 0,6 | 1007,4 |
| 8 | Campanacura | 09-05-2026 01:45 | 6,7 | 21,5 | 0 | 0 | 190 | 0,6 | 1007,4 |
| 7 | Campanacura | 09-05-2026 01:30 | 7 | 21,1 | 0 | 0 | 194 | 0,6 | 1007,5 |
| 6 | Campanacura | 09-05-2026 01:15 | 7,3 | 20,8 | 0 | 0 | 190 | 0,6 | 1007,3 |
| 5 | Campanacura | 09-05-2026 01:00 | 7,3 | 20,7 | 0 | 0 | 187 | 0,6 | 1007,3 |
| 4 | Campanacura | 09-05-2026 00:45 | 7,6 | 20,3 | 0 | 0,5 | 191 | 0,6 | 1006,9 |
| 3 | Campanacura | 09-05-2026 00:30 | 7,7 | 20,1 | 0 | 0,5 | 190 | 0,6 | 1007,2 |
| 2 | Campanacura | 09-05-2026 00:15 | 8,2 | 19,8 | 0 | 1 | 191 | 0,6 | 1007 |
| 1 | Campanacura | 09-05-2026 00:00 | 8,4 | 19,7 | 0 | 1,5 | 191 | 0,6 | 1007,3 |